Time;durP1;ratioP1;P1;durP2;ratioP2;P2;SDS_P1;SDS_P2;PMS_P1;PMS_P2;Temp;Humidity;BMP_temperature;BMP_pressure;BME280_temperature;BME280_humidity;BME280_pressure;Samples;Min_cycle;Max_cycle;Signal;HPM_P1;HPM_P2
2022/07/28 00:00:22;;;;;;;12.82;2.85;;;;;;;13.20;66.76;101757.53;4999962;28;20428;-74
2022/07/28 00:02:47;;;;;;;10.38;2.30;;;;;;;12.93;68.09;101761.16;5009219;28;20026;-72
2022/07/28 00:05:13;;;;;;;10.75;2.95;;;;;;;12.87;67.98;101764.47;4995387;28;20030;-72
2022/07/28 00:07:38;;;;;;;10.98;2.90;;;;;;;12.77;68.31;101762.66;5011478;28;20021;-74
2022/07/28 00:10:04;;;;;;;7.00;2.78;;;;;;;12.83;68.98;101763.06;4996521;28;20026;-73
2022/07/28 00:12:31;;;;;;;10.57;3.03;;;;;;;12.70;68.75;101756.09;5002946;28;20448;-73
2022/07/28 00:14:56;;;;;;;10.10;2.45;;;;;;;12.79;69.07;101753.53;5004992;28;20485;-73
2022/07/28 00:17:21;;;;;;;9.70;2.85;;;;;;;12.64;69.37;101756.72;5005195;28;20164;-73
2022/07/28 00:19:47;;;;;;;14.55;3.05;;;;;;;12.61;70.36;101751.59;5011342;28;20040;-73
2022/07/28 00:22:12;;;;;;;8.55;2.85;;;;;;;12.58;70.60;101762.75;5000142;28;20088;-72
2022/07/28 00:24:37;;;;;;;8.43;2.80;;;;;;;12.55;70.14;101757.63;5000698;28;20030;-72
2022/07/28 00:27:05;;;;;;;12.73;4.03;;;;;;;12.42;70.06;101762.53;4995104;28;20034;-72
2022/07/28 00:29:31;;;;;;;10.90;2.72;;;;;;;12.46;69.87;101755.81;5000912;28;20037;-73
2022/07/28 00:31:56;;;;;;;7.57;2.97;;;;;;;12.42;70.11;101757.09;5003004;28;20399;-72
2022/07/28 00:34:22;;;;;;;12.55;2.83;;;;;;;12.47;69.05;101754.81;5009225;28;20041;-73
2022/07/28 00:36:47;;;;;;;9.73;2.95;;;;;;;12.37;69.20;101753.97;5011016;28;20045;-73
2022/07/28 00:39:12;;;;;;;9.70;2.70;;;;;;;12.39;68.62;101750.13;4998949;28;20409;-72
2022/07/28 00:41:38;;;;;;;8.63;2.45;;;;;;;12.42;69.18;101751.66;5010390;28;20029;-72
2022/07/28 00:44:05;;;;;;;11.60;2.63;;;;;;;12.34;68.97;101754.28;5000859;28;20052;-72
2022/07/28 00:46:30;;;;;;;8.35;2.55;;;;;;;12.34;70.20;101754.28;4999380;28;20037;-72
2022/07/28 00:48:56;;;;;;;12.15;2.40;;;;;;;12.08;71.39;101759.50;5010237;28;20029;-72
2022/07/28 00:51:25;;;;;;;7.65;2.50;;;;;;;11.80;72.04;101755.78;5000227;28;20033;-73
2022/07/28 00:53:51;;;;;;;10.15;2.47;;;;;;;11.88;71.87;101747.81;5010544;28;20041;-72
2022/07/28 00:56:17;;;;;;;7.82;2.50;;;;;;;11.95;71.94;101752.53;4995539;28;20026;-72
2022/07/28 00:58:43;;;;;;;10.95;3.05;;;;;;;11.99;72.36;101750.34;5006287;28;20026;-72
2022/07/28 01:01:10;;;;;;;11.90;2.83;;;;;;;12.01;71.77;101764.66;4990576;28;20023;-72
2022/07/28 01:03:39;;;;;;;11.27;2.60;;;;;;;12.10;71.65;101758.34;5001238;28;20027;-73
2022/07/28 01:06:19;;;;;;;10.15;2.63;;;;;;;12.00;72.09;101752.09;4991627;28;20099;-73
2022/07/28 01:08:57;;;;;;;12.85;2.83;;;;;;;11.99;72.00;101754.94;4991770;28;20038;-72
2022/07/28 01:11:47;;;;;;;16.58;3.25;;;;;;;11.98;71.50;101745.94;4997608;28;20013;-72
2022/07/28 01:14:37;;;;;;;11.68;2.50;;;;;;;11.86;71.35;101755.22;5004781;28;20105;-72
2022/07/28 01:17:31;;;;;;;13.32;2.65;;;;;;;11.51;73.32;101751.22;5012172;28;20026;-72
2022/07/28 01:20:34;;;;;;;18.92;3.13;;;;;;;11.69;73.10;101751.38;5007967;28;20088;-72
2022/07/28 01:23:18;;;;;;;9.10;3.03;;;;;;;11.79;72.20;101748.63;5004735;28;20215;-72
2022/07/28 01:26:25;;;;;;;10.13;2.53;;;;;;;11.81;71.07;101752.13;5023149;28;20503;-73
2022/07/28 01:29:20;;;;;;;14.75;2.70;;;;;;;11.82;72.05;101756.53;5001968;28;20126;-73
2022/07/28 01:32:20;;;;;;;8.48;2.63;;;;;;;11.59;72.07;101754.09;4998685;28;20087;-73
2022/07/28 01:34:54;;;;;;;9.10;2.38;;;;;;;11.61;71.98;101756.69;5002273;28;20076;-73
2022/07/28 01:37:28;;;;;;;8.68;2.85;;;;;;;11.61;71.61;101751.25;5015785;23;20038;-70
2022/07/28 01:39:59;;;;;;;8.93;2.40;;;;;;;11.68;71.39;101758.66;4995375;28;20035;-68
2022/07/28 01:42:29;;;;;;;12.20;2.78;;;;;;;11.56;71.35;101754.38;4984742;28;20031;-68
2022/07/28 01:44:58;;;;;;;5.15;2.70;;;;;;;11.35;71.78;101750.97;4982440;28;20081;-68
2022/07/28 01:47:26;;;;;;;12.88;3.22;;;;;;;11.39;72.72;101757.78;4992959;28;20197;-71
2022/07/28 01:49:54;;;;;;;8.45;2.55;;;;;;;11.46;72.44;101758.94;4982233;28;20062;-71
2022/07/28 01:52:22;;;;;;;15.38;3.40;;;;;;;11.54;71.97;101767.25;4985907;28;20090;-68
2022/07/28 01:54:49;;;;;;;13.07;3.20;;;;;;;11.61;73.51;101756.69;4986201;28;20030;-68
2022/07/28 01:57:16;;;;;;;8.80;3.15;;;;;;;11.63;73.61;101766.38;4983473;28;20031;-68
2022/07/28 01:59:43;;;;;;;11.48;3.92;;;;;;;11.66;74.20;101776.91;4977686;28;20120;-68
2022/07/28 02:02:09;;;;;;;9.40;3.17;;;;;;;11.78;73.76;101771.34;4993105;28;20022;-71
2022/07/28 02:04:39;;;;;;;11.30;3.10;;;;;;;11.87;72.74;101773.25;4982999;28;20373;-68
2022/07/28 02:07:06;;;;;;;8.50;3.08;;;;;;;11.92;73.26;101771.78;4993469;28;20381;-69
2022/07/28 02:09:34;;;;;;;9.02;3.03;;;;;;;11.93;72.67;101767.22;4983809;28;20040;-69
2022/07/28 02:12:02;;;;;;;5.50;2.20;;;;;;;11.95;72.36;101760.66;4992382;28;20069;-68
2022/07/28 02:14:28;;;;;;;10.77;3.38;;;;;;;11.98;72.72;101766.78;4981883;28;20030;-69
2022/07/28 02:17:06;;;;;;;11.63;3.25;;;;;;;12.03;73.36;101768.06;4983325;28;20030;-69
2022/07/28 02:19:33;;;;;;;9.88;3.08;;;;;;;12.14;72.46;101765.19;4990575;28;20158;-69
2022/07/28 02:22:01;;;;;;;10.02;2.95;;;;;;;12.16;71.99;101763.19;4985135;28;20072;-69
2022/07/28 02:24:28;;;;;;;7.68;2.67;;;;;;;12.22;71.42;101757.16;4984724;28;20435;-69
2022/07/28 02:27:07;;;;;;;9.02;3.03;;;;;;;12.28;71.55;101755.72;4986616;28;20032;-68
2022/07/28 02:29:46;;;;;;;9.07;2.78;;;;;;;12.35;71.24;101756.00;4986678;28;20034;-69
2022/07/28 02:32:26;;;;;;;7.43;2.65;;;;;;;12.47;70.96;101754.81;4974274;28;20042;-69
2022/07/28 02:34:52;;;;;;;8.45;2.72;;;;;;;12.45;71.17;101756.78;4974144;28;20193;-69
2022/07/28 02:37:18;;;;;;;13.40;3.05;;;;;;;12.41;72.14;101755.41;4982269;28;20034;-68
2022/07/28 02:39:49;;;;;;;10.02;2.60;;;;;;;12.42;72.05;101766.09;4973054;28;20113;-68
2022/07/28 02:42:18;;;;;;;10.93;3.10;;;;;;;12.48;72.31;101756.50;4988116;28;20022;-69
2022/07/28 02:44:48;;;;;;;17.27;3.10;;;;;;;12.42;73.11;101767.97;4992455;28;20057;-69
2022/07/28 02:47:21;;;;;;;20.00;3.88;;;;;;;12.44;72.29;101761.38;4982430;28;20023;-69
2022/07/28 02:49:50;;;;;;;12.63;3.60;;;;;;;12.52;72.14;101757.94;4982515;28;20370;-69
2022/07/28 02:52:21;;;;;;;8.07;3.15;;;;;;;12.47;72.56;101766.53;4970891;28;20030;-69
2022/07/28 02:54:48;;;;;;;13.82;3.25;;;;;;;12.39;72.07;101768.28;4975204;28;20018;-69
2022/07/28 02:57:15;;;;;;;13.45;3.03;;;;;;;12.41;72.71;101766.25;4978981;28;20046;-68
2022/07/28 02:59:42;;;;;;;10.10;3.30;;;;;;;12.46;72.60;101769.41;4982211;28;20046;-69
2022/07/28 03:02:09;;;;;;;9.35;3.05;;;;;;;12.48;72.73;101772.81;4979563;28;20077;-69
2022/07/28 03:07:20;;;;;;;8.98;2.92;;;;;;;12.53;73.02;101773.22;4982756;28;20054;-69
2022/07/28 03:09:46;;;;;;;10.02;2.88;;;;;;;12.52;72.38;101774.22;4991838;28;20034;-68
2022/07/28 03:12:12;;;;;;;10.00;3.85;;;;;;;12.44;73.07;101777.66;4977010;28;20094;-69
2022/07/28 03:14:38;;;;;;;15.63;3.88;;;;;;;12.48;73.04;101778.25;4977761;28;20109;-68
2022/07/28 03:17:04;;;;;;;7.18;3.30;;;;;;;12.40;73.26;101780.84;4986590;28;20032;-68
2022/07/28 03:19:30;;;;;;;10.00;3.53;;;;;;;12.37;72.86;101786.56;4991474;28;20057;-68
2022/07/28 03:21:55;;;;;;;11.45;3.45;;;;;;;11.94;75.65;101779.81;4980965;28;20035;-70
2022/07/28 03:24:23;;;;;;;7.20;3.60;;;;;;;11.85;75.91;101786.94;4981592;28;20023;-70
2022/07/28 03:26:59;;;;;;;15.73;3.08;;;;;;;11.64;76.88;101788.94;4978021;28;20113;-70
2022/07/28 03:29:27;;;;;;;12.55;4.20;;;;;;;12.07;75.98;101796.66;4983517;28;20062;-70
2022/07/28 03:31:55;;;;;;;14.77;4.03;;;;;;;12.14;74.55;101791.50;4982259;28;20030;-70
2022/07/28 03:34:21;;;;;;;13.00;3.13;;;;;;;12.27;74.71;101796.63;4975475;28;20018;-70
2022/07/28 03:36:52;;;;;;;11.65;3.03;;;;;;;12.25;74.62;101795.88;4992912;28;20041;-69
2022/07/28 03:39:21;;;;;;;14.27;3.67;;;;;;;11.95;76.83;101792.38;4984608;28;20065;-70
2022/07/28 03:41:47;;;;;;;5.80;2.97;;;;;;;11.91;77.40;101799.09;4979861;28;20074;-70
2022/07/28 03:44:13;;;;;;;9.23;3.45;;;;;;;12.36;75.62;101806.56;4983343;28;20116;-69
2022/07/28 03:46:45;;;;;;;12.30;3.42;;;;;;;12.55;74.25;101801.09;4978807;28;20057;-70
2022/07/28 03:49:11;;;;;;;12.88;3.38;;;;;;;12.50;74.13;101808.81;4980423;28;20127;-70
2022/07/28 03:51:36;;;;;;;6.80;3.17;;;;;;;12.18;75.76;101804.59;4989411;28;20053;-70
2022/07/28 03:54:02;;;;;;;7.57;3.30;;;;;;;12.57;74.87;101803.66;4973272;28;20018;-70
2022/07/28 03:56:27;;;;;;;8.48;3.30;;;;;;;12.37;75.38;101808.28;4973676;28;20019;-70
2022/07/28 03:58:53;;;;;;;12.90;3.53;;;;;;;12.33;76.14;101812.31;4965979;28;20031;-70
2022/07/28 04:01:18;;;;;;;15.93;3.75;;;;;;;12.26;75.93;101811.16;4972759;28;20136;-69
2022/07/28 04:03:43;;;;;;;9.20;3.70;;;;;;;12.19;76.15;101800.91;4975402;28;20113;-70
2022/07/28 04:06:12;;;;;;;11.23;3.33;;;;;;;12.44;76.03;101809.41;4979989;28;20023;-70
2022/07/28 04:08:37;;;;;;;7.45;3.20;;;;;;;12.78;74.59;101812.44;4980697;28;20079;-70
2022/07/28 04:11:03;;;;;;;8.25;2.88;;;;;;;12.65;74.65;101811.91;4981022;28;20054;-69
2022/07/28 04:13:30;;;;;;;11.80;3.55;;;;;;;12.71;74.45;101817.63;4990942;28;20019;-70
2022/07/28 04:15:56;;;;;;;12.00;2.83;;;;;;;12.94;73.80;101818.09;4974414;28;20031;-70
2022/07/28 04:18:21;;;;;;;9.32;3.13;;;;;;;13.10;73.03;101809.25;4982207;28;20029;-70
2022/07/28 04:20:46;;;;;;;14.07;3.42;;;;;;;13.20;72.36;101810.09;4998700;28;20113;-70
2022/07/28 04:23:12;;;;;;;17.33;3.53;;;;;;;13.33;72.15;101800.72;4990449;28;20036;-70
2022/07/28 04:25:37;;;;;;;13.20;3.65;;;;;;;13.45;71.71;101800.34;4990383;28;20560;-69
2022/07/28 04:28:03;;;;;;;7.15;2.75;;;;;;;13.63;71.24;101808.53;4983895;28;20030;-70
2022/07/28 04:30:28;;;;;;;13.98;3.22;;;;;;;13.71;70.62;101805.88;4982802;28;20026;-69
2022/07/28 04:32:55;;;;;;;14.10;3.03;;;;;;;13.69;71.11;101807.91;4972440;28;20054;-70
2022/07/28 04:35:26;;;;;;;8.98;3.38;;;;;;;13.88;70.64;101795.13;4983004;28;20022;-70
2022/07/28 04:37:54;;;;;;;9.30;3.28;;;;;;;13.78;71.34;101801.53;4979784;28;20458;-70
2022/07/28 04:40:20;;;;;;;12.95;3.40;;;;;;;13.96;70.63;101803.38;4975664;28;20030;-70
2022/07/28 04:42:45;;;;;;;9.05;2.90;;;;;;;13.95;70.63;101809.81;4975691;28;20029;-70
2022/07/28 04:45:11;;;;;;;14.23;3.60;;;;;;;13.61;71.01;101809.69;4971267;28;20026;-69
2022/07/28 04:47:37;;;;;;;8.68;3.10;;;;;;;13.88;70.95;101814.19;4978774;28;20117;-69
2022/07/28 04:50:06;;;;;;;13.07;3.58;;;;;;;14.05;70.52;101813.31;4975991;28;20031;-70
2022/07/28 04:52:32;;;;;;;13.52;3.65;;;;;;;14.08;70.51;101815.69;4985110;28;20075;-68
2022/07/28 04:54:58;;;;;;;7.78;2.97;;;;;;;14.04;70.96;101808.88;4985544;28;20026;-69
2022/07/28 04:57:26;;;;;;;11.55;3.58;;;;;;;14.16;70.35;101818.50;4978661;28;20090;-70
2022/07/28 04:59:53;;;;;;;12.68;3.88;;;;;;;14.21;69.86;101807.97;4980836;28;20034;-69
2022/07/28 05:02:19;;;;;;;14.43;3.92;;;;;;;14.25;70.09;101820.28;4978821;28;20022;-69
2022/07/28 05:04:44;;;;;;;9.73;3.10;;;;;;;14.40;68.99;101812.38;4989517;28;20083;-68
2022/07/28 05:07:10;;;;;;;10.23;3.00;;;;;;;14.33;69.34;101806.69;4995103;28;20117;-69
2022/07/28 05:09:35;;;;;;;10.10;2.90;;;;;;;14.29;69.69;101813.50;4987042;28;20038;-69
2022/07/28 05:12:01;;;;;;;8.23;3.45;;;;;;;14.44;69.18;101810.19;4974629;28;20501;-70
2022/07/28 05:14:26;;;;;;;13.70;3.78;;;;;;;14.57;68.63;101818.81;4986356;28;20041;-69
2022/07/28 05:16:52;;;;;;;13.20;3.55;;;;;;;14.47;69.25;101812.59;4977553;28;20105;-69
2022/07/28 05:19:17;;;;;;;13.05;3.63;;;;;;;14.64;69.41;101807.09;4982534;28;20027;-69
2022/07/28 05:21:43;;;;;;;11.82;3.60;;;;;;;14.73;68.61;101813.44;4984693;28;20088;-69
2022/07/28 05:24:09;;;;;;;11.02;3.45;;;;;;;14.87;68.35;101810.13;4982271;28;20365;-69
2022/07/28 05:26:34;;;;;;;16.00;4.15;;;;;;;15.04;67.71;101812.91;4981672;28;20026;-68
2022/07/28 05:29:00;;;;;;;11.93;4.45;;;;;;;15.05;68.12;101811.88;4988803;28;20053;-69
2022/07/28 05:31:25;;;;;;;12.65;5.30;;;;;;;15.15;67.81;101813.47;4980776;28;20118;-69
2022/07/28 05:33:51;;;;;;;16.00;3.70;;;;;;;15.36;67.05;101821.19;4977715;28;20023;-69
2022/07/28 05:36:16;;;;;;;15.07;4.65;;;;;;;15.56;66.42;101826.38;4985402;28;20026;-69
2022/07/28 05:38:42;;;;;;;16.70;4.05;;;;;;;15.31;67.38;101828.16;4985868;28;20045;-69
2022/07/28 05:41:07;;;;;;;14.48;3.17;;;;;;;15.42;67.25;101826.00;4985092;28;20030;-69
2022/07/28 05:43:36;;;;;;;11.18;3.65;;;;;;;15.33;67.59;101832.47;4974714;28;20098;-69
2022/07/28 05:46:02;;;;;;;9.13;3.25;;;;;;;15.55;67.13;101830.13;4985557;28;20037;-69
2022/07/28 05:48:27;;;;;;;10.77;3.92;;;;;;;15.53;66.77;101837.63;4984280;28;20026;-69
2022/07/28 05:50:53;;;;;;;14.23;3.83;;;;;;;15.72;66.02;101843.69;4984646;28;20026;-69
2022/07/28 05:53:20;;;;;;;14.48;3.45;;;;;;;15.72;66.56;101840.09;4980185;28;20026;-69
2022/07/28 05:55:46;;;;;;;14.43;3.55;;;;;;;15.63;66.81;101843.81;4988634;28;20030;-69
2022/07/28 05:58:11;;;;;;;17.50;4.38;;;;;;;15.74;66.18;101841.63;4986931;28;20042;-69
2022/07/28 06:00:37;;;;;;;14.23;3.85;;;;;;;15.78;65.97;101842.16;4983707;28;20036;-69
2022/07/28 06:03:02;;;;;;;14.32;4.05;;;;;;;16.15;65.00;101843.53;4982984;28;20452;-69
2022/07/28 06:05:29;;;;;;;11.68;3.63;;;;;;;16.16;65.19;101839.75;4973692;28;20054;-69
2022/07/28 06:07:56;;;;;;;15.00;3.35;;;;;;;16.12;64.96;101832.94;4990718;28;20038;-70
2022/07/28 06:10:24;;;;;;;10.32;3.15;;;;;;;15.70;66.01;101839.38;4982597;28;20032;-69
2022/07/28 06:12:54;;;;;;;8.82;3.53;;;;;;;16.23;65.01;101829.84;4981621;28;20029;-69
2022/07/28 06:15:22;;;;;;;13.40;4.05;;;;;;;16.65;63.44;101834.25;4982443;28;20034;-69
2022/07/28 06:17:54;;;;;;;12.20;3.00;;;;;;;16.64;62.54;101832.53;4973314;28;20468;-70
2022/07/28 06:20:21;;;;;;;17.70;3.10;;;;;;;16.78;59.45;101837.31;4973104;28;20034;-69
2022/07/28 06:22:52;;;;;;;8.77;2.28;;;;;;;16.92;58.63;101836.56;4976230;28;20027;-69
2022/07/28 06:25:22;;;;;;;9.57;1.85;;;;;;;16.62;58.52;101834.56;4975573;28;20023;-69
2022/07/28 06:27:50;;;;;;;18.45;2.60;;;;;;;16.93;58.45;101843.75;4974827;28;20122;-69
2022/07/28 06:30:16;;;;;;;11.43;1.80;;;;;;;17.35;55.04;101843.41;4976328;28;20027;-69
2022/07/28 06:32:42;;;;;;;12.90;1.95;;;;;;;17.23;54.21;101844.84;4974708;28;20019;-69
2022/07/28 06:35:08;;;;;;;9.55;1.80;;;;;;;17.28;53.80;101852.53;4976285;28;20031;-70
2022/07/28 06:37:34;;;;;;;7.57;1.55;;;;;;;16.63;55.91;101852.72;4975166;28;20081;-69
2022/07/28 06:39:59;;;;;;;9.55;1.90;;;;;;;16.88;56.47;101856.25;4974847;28;20026;-69
2022/07/28 06:42:25;;;;;;;8.23;2.13;;;;;;;16.88;55.61;101851.63;4975887;28;20503;-69
2022/07/28 06:44:51;;;;;;;9.52;2.35;;;;;;;16.50;56.35;101858.72;4975686;28;20026;-70
2022/07/28 06:47:18;;;;;;;11.38;2.38;;;;;;;16.69;56.02;101852.88;4972899;28;20022;-69
2022/07/28 06:49:43;;;;;;;12.85;2.20;;;;;;;17.34;53.18;101854.53;4983621;28;20070;-70
2022/07/28 06:52:08;;;;;;;9.07;2.13;;;;;;;17.55;53.16;101854.78;4976657;28;20116;-70
2022/07/28 06:54:34;;;;;;;8.15;1.98;;;;;;;17.67;52.59;101851.59;4981270;28;20030;-70
2022/07/28 06:57:00;;;;;;;12.10;1.85;;;;;;;17.74;52.47;101853.50;4983381;28;20026;-69
2022/07/28 06:59:25;;;;;;;11.85;2.17;;;;;;;17.82;52.07;101845.22;4976599;28;20026;-70
2022/07/28 07:01:50;;;;;;;12.65;1.92;;;;;;;17.89;52.16;101853.53;4972177;28;20019;-70
2022/07/28 07:04:16;;;;;;;5.88;1.90;;;;;;;17.81;52.14;101853.63;4976432;28;20018;-69
2022/07/28 07:06:42;;;;;;;6.78;1.70;;;;;;;17.92;52.33;101850.44;4972909;28;20478;-70
2022/07/28 07:09:07;;;;;;;9.07;2.00;;;;;;;17.67;52.56;101857.06;4972620;28;20027;-70
2022/07/28 07:11:32;;;;;;;10.82;2.10;;;;;;;17.76;52.00;101861.50;4992030;28;20030;-69
2022/07/28 07:13:58;;;;;;;8.02;1.65;;;;;;;17.73;52.68;101857.22;4980678;28;20497;-69
2022/07/28 07:16:23;;;;;;;8.13;1.75;;;;;;;17.92;52.21;101866.88;4980964;28;20031;-70
2022/07/28 07:18:51;;;;;;;8.38;1.50;;;;;;;17.73;52.18;101839.94;4982222;28;20033;-70
2022/07/28 07:21:18;;;;;;;7.55;1.67;;;;;;;18.14;50.78;101851.47;4978087;28;20066;-70
2022/07/28 07:23:43;;;;;;;9.32;1.90;;;;;;;17.67;51.69;101851.59;4981932;28;20050;-69
2022/07/28 07:26:08;;;;;;;6.63;2.22;;;;;;;18.05;50.76;101853.41;4974004;28;20022;-68
2022/07/28 07:28:33;;;;;;;11.27;2.00;;;;;;;18.08;51.89;101858.53;4975684;28;20061;-68
2022/07/28 07:30:59;;;;;;;9.98;1.98;;;;;;;18.18;50.43;101861.88;4970722;28;20042;-68
2022/07/28 07:33:24;;;;;;;7.70;2.05;;;;;;;17.94;51.07;101859.34;4998641;28;20022;-68
2022/07/28 07:35:51;;;;;;;13.68;2.03;;;;;;;17.19;52.64;101859.91;4975477;28;20077;-68
2022/07/28 07:38:16;;;;;;;15.48;2.30;;;;;;;17.94;51.40;101859.34;4982923;28;20025;-68
2022/07/28 07:40:42;;;;;;;17.90;2.38;;;;;;;18.29;50.67;101862.47;4992616;28;20033;-69
2022/07/28 07:43:07;;;;;;;10.43;2.30;;;;;;;18.45;49.73;101856.81;4976943;28;20113;-69
2022/07/28 07:45:33;;;;;;;9.88;1.80;;;;;;;17.96;50.90;101868.22;4971666;28;20382;-69
2022/07/28 07:47:59;;;;;;;33.00;3.20;;;;;;;17.82;53.56;101866.28;4985793;28;20034;-68
2022/07/28 07:50:25;;;;;;;14.07;3.20;;;;;;;17.63;54.75;101868.41;4981826;28;20026;-68
2022/07/28 07:52:50;;;;;;;16.65;3.58;;;;;;;17.39;56.26;101865.78;4980158;28;20073;-68
2022/07/28 07:55:16;;;;;;;18.80;2.72;;;;;;;17.32;55.36;101870.28;4981164;28;20025;-69
2022/07/28 07:57:42;;;;;;;25.13;3.85;;;;;;;17.66;55.32;101871.81;4980095;28;20037;-69
2022/07/28 08:00:08;;;;;;;10.07;3.00;;;;;;;17.52;55.67;101876.16;4976981;28;20030;-68
2022/07/28 08:02:37;;;;;;;20.02;4.65;;;;;;;17.13;56.79;101873.44;4971834;28;20031;-68
2022/07/28 08:05:03;;;;;;;19.98;3.15;;;;;;;17.25;55.78;101870.13;4971214;28;20026;-68
2022/07/28 08:07:30;;;;;;;29.88;3.17;;;;;;;17.34;55.98;101868.19;4971498;28;20050;-68
2022/07/28 08:09:55;;;;;;;17.35;3.78;;;;;;;17.82;55.88;101866.28;4978623;28;20030;-68
2022/07/28 08:12:20;;;;;;;16.52;3.25;;;;;;;17.53;56.80;101859.56;4973867;28;20093;-68
2022/07/28 08:14:46;;;;;;;8.98;3.00;;;;;;;17.42;57.48;101870.94;4970166;28;20041;-68
2022/07/28 08:17:11;;;;;;;14.55;3.08;;;;;;;17.78;55.33;101864.91;4982094;28;20116;-68
2022/07/28 08:19:36;;;;;;;17.23;3.58;;;;;;;17.64;56.31;101858.31;4972457;28;20037;-69
2022/07/28 08:22:02;;;;;;;20.33;3.60;;;;;;;17.45;55.97;101870.56;4988392;28;20026;-68
2022/07/28 08:24:27;;;;;;;11.32;3.28;;;;;;;17.41;56.24;101865.59;4986300;28;20084;-68
2022/07/28 08:26:52;;;;;;;24.50;4.22;;;;;;;17.84;54.75;101861.44;4971439;28;20026;-68
2022/07/28 08:29:18;;;;;;;18.08;3.28;;;;;;;17.87;54.83;101859.22;4974919;28;20029;-68
2022/07/28 08:31:43;;;;;;;16.40;2.35;;;;;;;17.92;54.37;101860.53;4981590;28;20038;-68
2022/07/28 08:34:08;;;;;;;16.45;2.88;;;;;;;17.84;54.65;101875.16;4981251;28;20022;-69
2022/07/28 08:36:34;;;;;;;22.02;3.13;;;;;;;17.80;54.91;101860.97;4968983;28;20037;-69
2022/07/28 08:38:59;;;;;;;13.50;3.17;;;;;;;17.56;54.50;101867.41;4961301;28;20018;-68
2022/07/28 08:41:31;;;;;;;10.57;2.50;;;;;;;17.31;54.84;101868.56;4962895;28;20029;-68
2022/07/28 08:43:58;;;;;;;12.80;2.90;;;;;;;17.33;54.37;101861.88;4965811;28;20113;-68
2022/07/28 08:46:24;;;;;;;13.05;2.78;;;;;;;17.38;54.52;101874.19;4965224;28;20037;-68
2022/07/28 08:48:50;;;;;;;22.90;3.92;;;;;;;17.13;56.14;101870.69;4949659;28;20027;-68
2022/07/28 08:51:16;;;;;;;14.18;2.90;;;;;;;17.33;55.31;101866.50;4965149;28;20026;-68
2022/07/28 08:53:42;;;;;;;16.25;3.05;;;;;;;17.42;55.34;101870.94;4964227;28;20022;-68
2022/07/28 08:56:12;;;;;;;9.95;2.50;;;;;;;17.53;54.61;101867.75;4966760;28;20093;-68
2022/07/28 08:58:38;;;;;;;13.85;3.33;;;;;;;17.80;54.52;101860.09;4966492;28;20043;-68
2022/07/28 09:01:07;;;;;;;13.65;3.10;;;;;;;17.97;53.35;101867.19;4971754;28;20489;-67
2022/07/28 09:03:33;;;;;;;9.98;2.45;;;;;;;17.64;54.13;101859.16;4969724;28;20023;-67
2022/07/28 09:05:58;;;;;;;13.13;2.75;;;;;;;17.73;53.75;101856.38;4969987;28;20023;-67
2022/07/28 09:08:24;;;;;;;13.73;3.03;;;;;;;17.80;53.30;101851.88;4965307;28;20060;-67
2022/07/28 09:10:50;;;;;;;17.83;3.25;;;;;;;17.90;52.71;101852.50;4969850;28;20018;-67
2022/07/28 09:13:16;;;;;;;11.77;2.58;;;;;;;18.08;52.40;101855.78;4965464;28;20023;-68
2022/07/28 09:15:44;;;;;;;8.52;2.50;;;;;;;18.18;51.70;101856.38;4971670;28;20473;-68
2022/07/28 09:18:13;;;;;;;15.48;2.33;;;;;;;18.12;51.40;101851.63;4972267;28;20058;-70
2022/07/28 09:20:40;;;;;;;7.93;2.60;;;;;;;18.03;51.34;101858.22;4970247;28;20085;-67
2022/07/28 09:23:07;;;;;;;12.57;2.60;;;;;;;18.13;50.88;101850.63;4979581;28;20038;-67
2022/07/28 09:25:33;;;;;;;10.50;2.35;;;;;;;18.95;50.10;101855.31;4965829;28;20022;-68
2022/07/28 09:28:12;;;;;;;8.45;2.58;;;;;;;19.60;48.84;101851.75;4961949;28;20031;-68
2022/07/28 09:30:43;;;;;;;18.25;2.85;;;;;;;19.77;48.04;101847.72;4977669;28;20051;-68
2022/07/28 09:33:31;;;;;;;12.27;2.97;;;;;;;19.90;47.10;101851.66;4962041;28;20026;-68
2022/07/28 09:35:58;;;;;;;11.20;2.72;;;;;;;20.08;47.04;101849.25;4969356;28;20101;-68
2022/07/28 09:38:26;;;;;;;10.40;2.42;;;;;;;20.42;45.63;101855.94;4970204;28;20023;-68
2022/07/28 09:41:07;;;;;;;14.85;2.38;;;;;;;19.95;45.29;101854.63;4971901;28;20037;-68
2022/07/28 09:43:36;;;;;;;14.27;2.47;;;;;;;19.82;46.78;101851.75;4964368;28;20042;-68
2022/07/28 09:46:14;;;;;;;10.02;2.90;;;;;;;19.56;47.73;101850.41;4974098;28;20053;-67
2022/07/28 09:48:48;;;;;;;13.70;2.55;;;;;;;19.39;48.57;101852.53;4978985;28;20030;-68
2022/07/28 09:51:17;;;;;;;14.40;2.63;;;;;;;19.49;47.28;101860.44;4973451;28;20457;-68
2022/07/28 09:53:43;;;;;;;11.68;2.60;;;;;;;19.32;47.19;101848.00;4970241;28;20022;-68
2022/07/28 09:56:09;;;;;;;10.85;2.53;;;;;;;19.01;48.14;101862.78;4968995;28;20561;-68
2022/07/28 09:58:36;;;;;;;14.32;2.80;;;;;;;18.56;49.32;101863.75;4966519;28;20026;-68
2022/07/28 10:01:09;;;;;;;7.70;2.65;;;;;;;18.46;48.54;101864.03;4979137;28;20121;-68
2022/07/28 10:03:36;;;;;;;7.63;2.38;;;;;;;19.01;48.24;101857.28;4972849;28;20097;-68
2022/07/28 10:06:10;;;;;;;8.68;2.35;;;;;;;18.93;47.97;101854.66;4973319;28;20098;-68
2022/07/28 10:08:55;;;;;;;4.53;1.92;;;;;;;19.05;47.61;101866.88;4970423;28;20454;-69
2022/07/28 10:11:46;;;;;;;10.88;1.88;;;;;;;19.23;46.11;101859.09;4973878;28;20436;-68
2022/07/28 10:14:12;;;;;;;7.72;1.58;;;;;;;18.89;46.02;101853.31;4982984;28;20018;-68
2022/07/28 10:16:42;;;;;;;6.43;1.50;;;;;;;19.17;45.82;101856.22;4976595;28;20027;-68
2022/07/28 10:19:08;;;;;;;10.68;1.88;;;;;;;19.03;46.21;101860.69;4985846;28;20030;-69
2022/07/28 10:21:40;;;;;;;7.15;1.67;;;;;;;18.79;45.88;101863.75;4973347;28;20038;-69
2022/07/28 10:24:06;;;;;;;;;;;;;;;18.90;46.12;101866.00;4973674;28;20027;-68
2022/07/28 10:26:36;;;;;;;6.80;1.80;;;;;;;18.81;46.67;101861.66;4976229;28;19921;-69
2022/07/28 10:29:06;;;;;;;6.83;1.73;;;;;;;18.99;46.59;101864.88;4971357;28;20481;-69
2022/07/28 10:31:48;;;;;;;14.77;2.75;;;;;;;19.27;45.90;101861.44;4976839;28;20290;-69
2022/07/28 10:34:18;;;;;;;;;;;;;;;18.98;45.62;101863.19;4976451;28;20027;-69
2022/07/28 10:36:45;;;;;;;10.23;1.90;;;;;;;18.87;45.86;101860.91;4989676;28;19964;-69
2022/07/28 10:39:14;;;;;;;8.48;1.65;;;;;;;18.88;46.45;101865.34;4977794;28;20026;-69
2022/07/28 10:41:41;;;;;;;12.48;1.60;;;;;;;18.93;46.31;101861.00;4981882;28;20022;-69
2022/07/28 10:44:12;;;;;;;3.30;1.52;;;;;;;18.93;45.94;101860.16;4981493;28;20038;-69
2022/07/28 10:46:39;;;;;;;7.75;1.40;;;;;;;19.22;45.73;101851.88;4983895;28;20172;-69
2022/07/28 10:49:12;;;;;;;13.50;1.63;;;;;;;19.19;45.76;101863.25;4973928;28;20049;-70
2022/07/28 10:51:41;;;;;;;7.32;1.90;;;;;;;19.52;46.06;101866.41;4963498;28;20030;-69
2022/07/28 10:54:24;;;;;;;12.20;1.38;;;;;;;19.53;45.96;101859.03;5006588;28;20023;-69
2022/07/28 10:56:56;;;;;;;9.35;2.05;;;;;;;19.42;45.74;101859.50;4975031;28;20105;-69
2022/07/28 11:00:00;;;;;;;8.63;1.75;;;;;;;19.51;46.32;101863.88;4980154;28;20037;-69
2022/07/28 11:02:59;;;;;;;6.88;1.60;;;;;;;19.48;45.54;101858.75;4982359;28;20058;-69
2022/07/28 11:05:38;;;;;;;7.93;1.70;;;;;;;19.65;45.85;101857.50;4944394;28;20042;-69
2022/07/28 11:08:26;;;;;;;4.13;1.50;;;;;;;19.82;45.06;101860.84;4984891;28;20428;-69
2022/07/28 11:10:54;;;;;;;6.95;1.60;;;;;;;19.66;45.13;101856.47;4985296;28;20042;-69
2022/07/28 11:13:31;;;;;;;8.55;1.42;;;;;;;19.97;43.96;101855.31;4949564;28;20033;-69
2022/07/28 11:16:17;;;;;;;3.55;1.48;;;;;;;20.15;44.32;101861.22;4965856;28;20026;-69
2022/07/28 11:19:17;;;;;;;7.53;1.50;;;;;;;20.43;43.52;101849.38;4967419;28;20379;-71
2022/07/28 11:22:20;;;;;;;9.05;1.92;;;;;;;20.66;42.93;101861.00;4956781;28;20497;-69
2022/07/28 11:24:58;;;;;;;4.32;1.48;;;;;;;20.82;42.01;101862.59;4968048;28;20030;-69
2022/07/28 11:27:39;;;;;;;4.32;1.40;;;;;;;20.65;42.13;101856.56;4967347;28;20026;-68
2022/07/28 11:30:24;;;;;;;7.03;1.40;;;;;;;20.91;40.99;101855.03;4964646;28;20022;-69
2022/07/28 11:32:49;;;;;;;5.63;1.27;;;;;;;21.15;41.58;101851.78;4966755;28;20041;-69